Time;durP1;ratioP1;P1;durP2;ratioP2;P2;SDS_P1;SDS_P2;PMS_P1;PMS_P2;Temp;Humidity;BMP_temperature;BMP_pressure;BME280_temperature;BME280_humidity;BME280_pressure;Samples;Min_cycle;Max_cycle;Signal;HPM_P1;HPM_P2
2022/07/19 00:00:11;;;;;;;4.87;4.27;;;23.20;57.80;;;;;;5075784;28;20551;-71
2022/07/19 00:02:39;;;;;;;7.90;4.57;;;22.90;58.00;;;;;;5075589;28;20440;-71
2022/07/19 00:05:08;;;;;;;5.50;5.00;;;22.70;58.40;;;;;;5075703;28;20523;-71
2022/07/19 00:07:35;;;;;;;7.57;4.67;;;22.70;58.50;;;;;;5075405;28;20496;-72
2022/07/19 00:10:05;;;;;;;5.37;3.90;;;22.90;58.70;;;;;;5075652;28;20461;-71
2022/07/19 00:12:32;;;;;;;4.87;4.33;;;23.00;58.30;;;;;;5075712;28;20448;-72
2022/07/19 00:15:01;;;;;;;6.50;4.90;;;23.00;58.30;;;;;;5075259;28;20432;-72
2022/07/19 00:17:28;;;;;;;13.23;5.30;;;23.00;58.60;;;;;;5075226;28;20449;-71
2022/07/19 00:19:55;;;;;;;6.20;4.90;;;23.00;58.50;;;;;;5075406;28;20530;-72
2022/07/19 00:22:22;;;;;;;6.07;4.30;;;22.80;59.00;;;;;;5075133;28;20535;-71
2022/07/19 00:24:49;;;;;;;7.10;5.60;;;22.70;59.10;;;;;;5075371;28;20452;-71
2022/07/19 00:27:16;;;;;;;5.00;4.50;;;22.50;59.30;;;;;;5075213;28;20513;-71
2022/07/19 00:29:44;;;;;;;7.70;4.90;;;22.40;59.30;;;;;;5075240;28;20835;-71
2022/07/19 00:32:12;;;;;;;6.33;4.77;;;22.60;59.80;;;;;;5075276;28;20543;-71
2022/07/19 00:34:39;;;;;;;5.40;4.60;;;22.70;59.60;;;;;;5075316;28;20456;-72
2022/07/19 00:37:06;;;;;;;4.87;4.47;;;22.70;59.60;;;;;;5075169;28;20488;-71
2022/07/19 00:39:34;;;;;;;4.23;3.80;;;22.60;59.70;;;;;;5074786;28;20902;-72
2022/07/19 00:42:01;;;;;;;5.43;4.20;;;22.50;59.80;;;;;;5074665;28;21049;-72
2022/07/19 00:44:28;;;;;;;5.27;4.40;;;22.60;59.90;;;;;;5074710;28;20539;-72
2022/07/19 00:46:55;;;;;;;6.10;5.50;;;22.50;60.20;;;;;;5074079;28;20804;-72
2022/07/19 00:49:28;;;;;;;5.00;4.13;;;22.40;60.50;;;;;;5074722;28;20955;-72
2022/07/19 00:51:57;;;;;;;5.03;4.53;;;22.20;61.30;;;;;;5074742;28;20448;-72
2022/07/19 00:54:26;;;;;;;6.43;4.67;;;22.30;61.60;;;;;;5074864;28;20527;-72
2022/07/19 00:56:54;;;;;;;9.10;4.73;;;22.40;62.10;;;;;;5074690;28;20484;-72
2022/07/19 00:59:22;;;;;;;6.83;4.40;;;22.40;61.50;;;;;;5074446;28;21031;-72
2022/07/19 01:01:49;;;;;;;5.43;4.90;;;22.30;61.80;;;;;;5074445;28;20450;-72
2022/07/19 01:04:17;;;;;;;5.80;4.90;;;22.30;62.20;;;;;;5074299;28;20453;-72
2022/07/19 01:06:46;;;;;;;5.33;4.20;;;22.20;62.00;;;;;;5074286;28;20552;-71
2022/07/19 01:09:13;;;;;;;6.40;4.87;;;21.90;62.50;;;;;;5074290;28;20456;-72
2022/07/19 01:11:41;;;;;;;7.30;4.77;;;21.90;62.70;;;;;;5074408;28;20514;-72
2022/07/19 01:14:08;;;;;;;6.73;4.67;;;21.90;63.20;;;;;;5074208;28;20951;-72
2022/07/19 01:16:35;;;;;;;5.40;4.90;;;21.80;63.50;;;;;;5074112;28;20998;-72
2022/07/19 01:19:05;;;;;;;5.80;5.30;;;21.90;63.60;;;;;;5074315;28;20452;-72
2022/07/19 01:21:34;;;;;;;5.43;4.60;;;22.00;63.80;;;;;;5074336;28;20509;-71
2022/07/19 01:24:01;;;;;;;6.00;5.23;;;22.00;64.60;;;;;;5073975;28;20502;-72
2022/07/19 01:26:29;;;;;;;5.40;4.80;;;22.00;64.40;;;;;;5073838;28;20444;-71
2022/07/19 01:28:56;;;;;;;4.87;4.40;;;22.10;64.70;;;;;;5073776;28;20452;-72
2022/07/19 01:31:23;;;;;;;5.60;4.27;;;22.00;64.40;;;;;;5074176;28;20464;-72
2022/07/19 01:33:51;;;;;;;4.53;4.13;;;21.80;65.30;;;;;;5074036;28;20549;-72
2022/07/19 01:36:18;;;;;;;4.70;4.30;;;21.80;66.50;;;;;;5073911;28;20538;-72
2022/07/19 01:38:46;;;;;;;6.43;4.83;;;21.90;66.10;;;;;;5073727;28;20448;-72
2022/07/19 01:41:13;;;;;;;5.70;4.47;;;21.90;66.30;;;;;;5073308;28;20567;-72
2022/07/19 01:43:40;;;;;;;5.20;4.80;;;21.90;66.20;;;;;;5073607;28;20896;-72
2022/07/19 01:46:08;;;;;;;5.33;4.53;;;21.90;66.60;;;;;;5073620;28;20811;-72
2022/07/19 01:48:36;;;;;;;5.33;4.67;;;21.90;66.50;;;;;;5073418;28;20479;-72
2022/07/19 01:51:03;;;;;;;6.77;4.97;;;22.00;66.60;;;;;;5073352;28;20470;-72
2022/07/19 01:53:30;;;;;;;5.63;5.13;;;21.70;66.50;;;;;;5073641;28;20539;-72
2022/07/19 01:55:59;;;;;;;9.00;5.10;;;21.60;66.80;;;;;;5073895;28;20484;-72
2022/07/19 01:58:26;;;;;;;4.97;4.57;;;21.60;67.30;;;;;;5073142;28;20448;-73
2022/07/19 02:00:53;;;;;;;4.73;4.33;;;21.70;68.20;;;;;;5073326;28;20975;-72
2022/07/19 02:03:20;;;;;;;5.77;5.27;;;21.70;67.80;;;;;;5073705;28;20939;-72
2022/07/19 02:05:47;;;;;;;4.67;4.30;;;21.70;67.40;;;;;;5073203;28;20463;-71
2022/07/19 02:08:14;;;;;;;7.47;5.87;;;21.70;67.90;;;;;;5073571;28;20474;-72
2022/07/19 02:10:42;;;;;;;5.90;4.80;;;21.70;68.10;;;;;;5073315;28;20476;-72
2022/07/19 02:13:10;;;;;;;7.93;4.90;;;21.70;68.40;;;;;;5073210;28;20544;-72
2022/07/19 02:15:37;;;;;;;9.27;5.63;;;21.60;67.80;;;;;;5073386;28;20445;-72
2022/07/19 02:18:04;;;;;;;4.60;4.20;;;21.40;68.70;;;;;;5073216;28;20445;-72
2022/07/19 02:20:32;;;;;;;5.10;4.60;;;21.30;69.50;;;;;;5073034;28;21046;-71
2022/07/19 02:22:59;;;;;;;6.93;5.30;;;21.20;69.90;;;;;;5073314;28;20528;-71
2022/07/19 02:25:26;;;;;;;5.57;5.00;;;21.20;70.10;;;;;;5073107;28;20452;-71
2022/07/19 02:27:54;;;;;;;9.70;5.83;;;21.20;70.50;;;;;;5073329;28;20440;-71
2022/07/19 02:30:23;;;;;;;7.13;4.60;;;21.30;71.00;;;;;;5073196;28;20535;-72
2022/07/19 02:32:50;;;;;;;5.70;4.70;;;21.30;70.40;;;;;;5073391;28;20441;-72
2022/07/19 02:35:18;;;;;;;5.30;4.80;;;21.30;70.50;;;;;;5072953;28;20867;-72
2022/07/19 02:37:46;;;;;;;7.03;4.23;;;21.10;71.20;;;;;;5073340;28;20502;-72
2022/07/19 02:40:13;;;;;;;5.27;4.80;;;21.10;71.80;;;;;;5073316;28;20479;-71
2022/07/19 02:42:41;;;;;;;4.90;4.50;;;21.10;71.40;;;;;;5072793;28;20875;-72
2022/07/19 02:45:08;;;;;;;6.97;4.37;;;21.20;72.20;;;;;;5072861;28;20946;-72
2022/07/19 02:47:38;;;;;;;5.97;4.70;;;21.20;71.70;;;;;;5072893;28;20453;-72
2022/07/19 02:50:06;;;;;;;5.57;5.00;;;21.20;71.90;;;;;;5073158;28;20468;-72
2022/07/19 02:52:33;;;;;;;4.20;3.80;;;21.30;71.40;;;;;;5072964;28;20531;-72
2022/07/19 02:55:00;;;;;;;4.73;4.30;;;21.00;71.90;;;;;;5072991;28;20433;-72
2022/07/19 02:57:28;;;;;;;5.13;4.63;;;20.90;72.40;;;;;;5073022;28;20465;-72
2022/07/19 02:59:55;;;;;;;12.23;6.23;;;20.80;72.80;;;;;;5072701;28;21171;-72
2022/07/19 03:02:22;;;;;;;7.20;5.33;;;20.70;73.20;;;;;;5073017;28;20443;-71
2022/07/19 03:04:50;;;;;;;6.10;4.13;;;20.70;73.50;;;;;;5073090;28;20536;-71
2022/07/19 03:07:18;;;;;;;5.27;4.73;;;20.80;74.10;;;;;;5072574;28;20854;-71
2022/07/19 03:09:45;;;;;;;4.73;4.37;;;20.90;72.70;;;;;;5072597;28;20929;-71
2022/07/19 03:12:13;;;;;;;4.27;3.87;;;21.00;73.70;;;;;;5076817;28;20835;-72
2022/07/19 03:14:40;;;;;;;7.43;4.50;;;21.00;73.90;;;;;;5076736;28;20471;-71
2022/07/19 03:17:07;;;;;;;5.67;4.57;;;21.10;73.60;;;;;;5076278;28;20487;-71
2022/07/19 03:19:34;;;;;;;4.53;4.13;;;21.10;73.30;;;;;;5076561;28;20535;-73
2022/07/19 03:22:03;;;;;;;6.53;5.47;;;20.80;74.10;;;;;;5076400;28;20483;-71
2022/07/19 03:24:30;;;;;;;5.80;4.73;;;20.60;75.30;;;;;;5076454;28;20444;-71
2022/07/19 03:26:57;;;;;;;8.43;5.13;;;20.50;75.80;;;;;;5076601;28;20442;-71
2022/07/19 03:29:24;;;;;;;5.30;4.60;;;20.50;76.10;;;;;;5076373;28;20448;-71
2022/07/19 03:31:52;;;;;;;7.30;4.63;;;20.70;76.80;;;;;;5076350;28;20448;-71
2022/07/19 03:34:19;;;;;;;6.03;4.70;;;20.70;76.90;;;;;;5076098;28;20444;-71
2022/07/19 03:36:46;;;;;;;10.60;4.77;;;20.70;76.50;;;;;;5076412;28;20951;-71
2022/07/19 03:39:15;;;;;;;6.57;5.17;;;20.80;76.50;;;;;;5076293;28;20805;-71
2022/07/19 03:41:42;;;;;;;7.50;5.37;;;20.60;76.80;;;;;;5075894;28;20488;-72
2022/07/19 03:44:10;;;;;;;7.30;5.50;;;20.60;77.00;;;;;;5075819;28;20959;-71
2022/07/19 03:46:37;;;;;;;4.93;4.40;;;20.60;78.10;;;;;;5076042;28;20445;-71
2022/07/19 03:49:04;;;;;;;6.57;4.70;;;20.70;77.70;;;;;;5076138;28;20444;-72
2022/07/19 03:51:31;;;;;;;6.83;4.90;;;20.70;77.10;;;;;;5075951;28;20468;-72
2022/07/19 03:53:58;;;;;;;8.97;4.77;;;20.70;78.50;;;;;;5075659;28;20447;-72
2022/07/19 03:56:27;;;;;;;5.70;4.70;;;20.50;77.70;;;;;;5075834;28;20579;-72
2022/07/19 03:58:54;;;;;;;14.13;5.07;;;20.40;78.50;;;;;;5075962;28;20445;-72
2022/07/19 04:01:21;;;;;;;5.67;5.00;;;20.30;79.10;;;;;;5075742;28;20475;-72
2022/07/19 04:03:48;;;;;;;5.30;4.80;;;20.20;79.60;;;;;;5075809;28;20479;-72
2022/07/19 04:06:15;;;;;;;5.60;4.47;;;20.10;79.90;;;;;;5075800;28;20460;-71
2022/07/19 04:08:43;;;;;;;7.17;5.77;;;20.20;80.50;;;;;;5075408;28;20429;-71
2022/07/19 04:11:10;;;;;;;6.63;4.90;;;20.30;81.10;;;;;;5075578;28;20861;-71
2022/07/19 04:13:38;;;;;;;4.63;4.27;;;20.40;80.00;;;;;;5075379;28;20451;-71
2022/07/19 04:16:06;;;;;;;5.50;4.30;;;20.50;80.40;;;;;;5075483;28;20808;-71
2022/07/19 04:18:33;;;;;;;12.53;5.23;;;20.50;80.80;;;;;;5075168;28;20871;-72
2022/07/19 04:21:00;;;;;;;6.00;4.53;;;20.40;80.70;;;;;;5075134;28;20468;-71
2022/07/19 04:23:27;;;;;;;5.83;5.30;;;20.30;81.40;;;;;;5075038;28;20931;-71
2022/07/19 04:25:55;;;;;;;6.27;5.63;;;20.20;81.90;;;;;;5075061;28;20540;-71
2022/07/19 04:28:22;;;;;;;8.23;5.20;;;20.20;82.20;;;;;;5075140;28;20484;-71
2022/07/19 04:30:51;;;;;;;7.53;4.73;;;20.40;83.10;;;;;;5075264;28;20850;-71
2022/07/19 04:33:20;;;;;;;5.03;4.40;;;20.40;82.80;;;;;;5075148;28;20508;-71
2022/07/19 04:35:47;;;;;;;6.50;4.63;;;20.50;82.60;;;;;;5075394;28;20457;-72
2022/07/19 04:38:14;;;;;;;8.20;5.03;;;20.50;82.30;;;;;;5074922;28;20518;-71
2022/07/19 04:40:41;;;;;;;6.27;5.03;;;20.60;82.40;;;;;;5075097;28;20559;-72
2022/07/19 04:43:09;;;;;;;5.10;4.60;;;20.60;82.50;;;;;;5073544;28;20515;-71
2022/07/19 04:45:36;;;;;;;5.27;4.83;;;20.60;82.50;;;;;;5075234;28;20554;-72
2022/07/19 04:48:05;;;;;;;5.37;4.57;;;20.70;82.30;;;;;;5074883;28;20445;-72
2022/07/19 04:50:32;;;;;;;5.73;4.70;;;20.70;83.10;;;;;;5073340;28;20536;-72
2022/07/19 04:53:00;;;;;;;10.10;4.67;;;20.70;83.20;;;;;;5074526;28;20886;-72
2022/07/19 04:55:27;;;;;;;7.63;5.30;;;20.70;83.10;;;;;;5074680;28;20535;-73
2022/07/19 04:57:54;;;;;;;5.90;4.40;;;20.70;83.90;;;;;;5074643;28;20498;-72
2022/07/19 05:00:21;;;;;;;6.43;4.90;;;20.70;82.70;;;;;;5074372;28;21006;-71
2022/07/19 05:02:48;;;;;;;5.43;5.03;;;20.80;83.60;;;;;;5074232;28;20544;-71
2022/07/19 05:05:17;;;;;;;6.30;4.97;;;20.80;84.60;;;;;;5074214;28;20444;-71
2022/07/19 05:07:44;;;;;;;7.40;5.10;;;20.80;84.80;;;;;;5074352;28;20770;-71
2022/07/19 05:10:11;;;;;;;10.60;4.60;;;20.90;85.00;;;;;;5074374;28;20474;-71
2022/07/19 05:12:39;;;;;;;9.03;5.33;;;20.90;84.10;;;;;;5074363;28;20531;-72
2022/07/19 05:15:07;;;;;;;8.50;5.13;;;21.00;85.60;;;;;;5074103;28;20444;-71
2022/07/19 05:17:35;;;;;;;8.40;5.20;;;21.00;83.80;;;;;;5074215;28;20476;-71
2022/07/19 05:20:02;;;;;;;6.80;5.60;;;21.10;83.00;;;;;;5074191;28;20464;-70
2022/07/19 05:22:31;;;;;;;20.67;6.20;;;21.20;83.10;;;;;;5073735;28;20457;-71
2022/07/19 05:24:58;;;;;;;10.30;5.03;;;21.20;80.80;;;;;;5073964;28;20444;-71
2022/07/19 05:27:25;;;;;;;6.90;4.70;;;21.30;83.00;;;;;;5073855;28;20469;-71
2022/07/19 05:29:52;;;;;;;7.20;5.50;;;21.30;81.40;;;;;;5073702;28;20559;-71
2022/07/19 05:32:20;;;;;;;6.50;5.30;;;21.40;83.80;;;;;;5073749;28;20805;-71
2022/07/19 05:34:47;;;;;;;6.60;5.27;;;21.40;84.30;;;;;;5073294;28;20441;-72
2022/07/19 05:37:14;;;;;;;13.63;5.67;;;21.50;84.00;;;;;;5074039;28;20925;-71
2022/07/19 05:39:43;;;;;;;8.20;5.57;;;21.50;85.40;;;;;;5073746;28;20465;-72
2022/07/19 05:42:10;;;;;;;6.23;5.63;;;21.50;85.80;;;;;;5073237;28;20836;-72
2022/07/19 05:44:37;;;;;;;7.17;4.60;;;21.60;86.10;;;;;;5073288;28;20439;-72
2022/07/19 05:47:04;;;;;;;8.47;5.87;;;21.70;83.40;;;;;;5073673;28;20449;-72
2022/07/19 05:49:32;;;;;;;8.67;5.70;;;21.80;83.70;;;;;;5073070;28;20444;-72
2022/07/19 05:51:59;;;;;;;5.80;5.30;;;21.80;83.70;;;;;;5073256;28;20475;-72
2022/07/19 05:54:26;;;;;;;7.40;5.90;;;21.90;83.50;;;;;;5073370;28;20802;-73
2022/07/19 05:56:55;;;;;;;7.07;6.37;;;22.00;84.00;;;;;;5073160;28;20935;-72
2022/07/19 05:59:23;;;;;;;6.80;4.97;;;22.00;84.60;;;;;;5073100;28;20449;-72
2022/07/19 06:01:50;;;;;;;8.60;6.40;;;22.10;83.10;;;;;;5073584;28;20444;-72
2022/07/19 06:04:17;;;;;;;8.40;6.10;;;22.10;81.10;;;;;;5072990;28;20448;-72
2022/07/19 06:06:45;;;;;;;10.83;6.03;;;22.20;82.10;;;;;;5073436;28;20461;-72
2022/07/19 06:09:12;;;;;;;7.10;5.63;;;22.30;77.40;;;;;;5073120;28;20448;-72
2022/07/19 06:11:40;;;;;;;8.13;5.23;;;22.40;77.30;;;;;;5073032;28;20526;-72
2022/07/19 06:14:09;;;;;;;6.83;5.23;;;22.50;77.40;;;;;;5073145;28;20455;-71
2022/07/19 06:16:38;;;;;;;5.30;4.43;;;22.70;80.00;;;;;;5072788;28;20498;-72
2022/07/19 06:19:05;;;;;;;5.93;5.30;;;22.70;78.40;;;;;;5072537;28;20496;-70
2022/07/19 06:21:33;;;;;;;5.47;4.70;;;22.90;77.50;;;;;;5072631;28;20464;-72
2022/07/19 06:24:01;;;;;;;9.20;5.47;;;23.00;77.30;;;;;;5072731;28;20455;-71
2022/07/19 06:26:28;;;;;;;12.90;6.10;;;23.00;76.90;;;;;;5072862;28;20475;-72
2022/07/19 06:28:56;;;;;;;6.63;5.20;;;23.10;76.60;;;;;;5073047;28;20967;-72
2022/07/19 06:31:24;;;;;;;6.13;4.73;;;23.20;74.70;;;;;;5072668;28;21010;-71
2022/07/19 06:33:52;;;;;;;5.80;5.10;;;23.30;72.00;;;;;;5073028;28;20536;-72
2022/07/19 06:36:20;;;;;;;11.80;5.20;;;23.30;71.40;;;;;;5072880;28;20514;-72
2022/07/19 06:38:49;;;;;;;8.00;5.00;;;23.50;72.60;;;;;;5072928;28;20852;-72
2022/07/19 06:41:16;;;;;;;8.67;5.93;;;23.50;72.30;;;;;;5072431;28;20492;-72
2022/07/19 06:43:44;;;;;;;10.80;4.83;;;23.60;74.80;;;;;;5072850;28;20429;-72
2022/07/19 06:46:12;;;;;;;12.00;6.10;;;23.70;71.20;;;;;;5074555;28;20459;-72
2022/07/19 06:48:40;;;;;;;7.80;5.80;;;23.80;69.30;;;;;;5077007;28;20635;-72
2022/07/19 06:51:08;;;;;;;7.37;4.97;;;23.90;70.40;;;;;;5076678;28;20503;-72
2022/07/19 06:53:37;;;;;;;13.77;5.70;;;24.00;70.50;;;;;;5076568;28;20487;-72
2022/07/19 06:56:04;;;;;;;6.23;5.23;;;24.10;67.50;;;;;;5076193;28;20531;-72
2022/07/19 06:58:31;;;;;;;6.90;4.70;;;24.20;68.60;;;;;;5076413;28;20986;-72
2022/07/19 07:01:00;;;;;;;6.57;5.97;;;24.30;68.00;;;;;;5076279;28;20558;-71
2022/07/19 07:03:27;;;;;;;9.30;4.50;;;24.40;65.50;;;;;;5076642;28;20446;-72
2022/07/19 07:05:56;;;;;;;6.93;5.20;;;24.60;64.10;;;;;;5076779;28;20463;-72
2022/07/19 07:08:23;;;;;;;9.30;5.63;;;24.70;63.10;;;;;;5076460;28;20470;-72
2022/07/19 07:10:50;;;;;;;8.30;5.07;;;24.70;63.60;;;;;;5076207;28;20511;-73
2022/07/19 07:13:18;;;;;;;7.27;5.03;;;24.80;65.40;;;;;;5076635;28;20478;-72
2022/07/19 07:15:45;;;;;;;10.40;5.50;;;25.00;63.70;;;;;;5076182;28;21034;-71
2022/07/19 07:18:12;;;;;;;9.80;6.30;;;25.10;63.40;;;;;;5076383;28;20563;-72
2022/07/19 07:20:40;;;;;;;7.83;4.60;;;25.20;63.60;;;;;;5076148;28;20850;-71
2022/07/19 07:23:08;;;;;;;8.30;5.13;;;25.40;63.70;;;;;;5075992;28;20911;-71
2022/07/19 07:25:35;;;;;;;9.20;4.73;;;25.80;62.70;;;;;;5075957;28;20966;-71
2022/07/19 07:28:02;;;;;;;6.00;4.90;;;26.70;60.10;;;;;;5076406;28;20479;-72
2022/07/19 07:30:30;;;;;;;11.63;4.90;;;27.60;59.90;;;;;;5076139;28;20468;-72
2022/07/19 07:32:57;;;;;;;7.07;5.07;;;28.30;58.10;;;;;;5076075;28;20449;-72
2022/07/19 07:35:25;;;;;;;7.40;4.10;;;29.20;55.80;;;;;;5076152;28;20456;-72
2022/07/19 07:38:11;;;;;;;7.20;4.90;;;29.50;55.20;;;;;;5076113;28;20464;-73
2022/07/19 07:41:04;;;;;;;12.20;5.80;;;30.20;55.00;;;;;;5075621;28;21073;-73
2022/07/19 07:43:57;;;;;;;6.10;4.20;;;30.40;54.70;;;;;;5073471;28;20452;-73
2022/07/19 07:46:24;;;;;;;5.03;3.87;;;31.10;53.70;;;;;;5074333;28;20533;-72
2022/07/19 07:48:51;;;;;;;12.27;4.90;;;31.50;53.00;;;;;;5074490;28;20533;-72
2022/07/19 07:51:18;;;;;;;3.87;3.43;;;31.80;52.20;;;;;;5074368;28;20464;-71
2022/07/19 07:53:45;;;;;;;4.90;3.73;;;31.70;51.60;;;;;;5074839;28;20448;-72
2022/07/19 07:56:14;;;;;;;4.80;3.60;;;32.10;51.40;;;;;;5074285;28;20447;-73
2022/07/19 07:58:41;;;;;;;5.40;3.80;;;32.00;50.00;;;;;;5074015;28;20604;-72
2022/07/19 08:01:09;;;;;;;4.17;3.83;;;32.00;50.10;;;;;;5074633;28;20472;-71
2022/07/19 08:03:36;;;;;;;4.67;3.37;;;32.70;50.80;;;;;;5073252;28;20494;-72
2022/07/19 08:06:03;;;;;;;4.13;2.90;;;33.20;49.40;;;;;;5074799;28;20451;-71
2022/07/19 08:08:30;;;;;;;4.27;3.67;;;33.50;48.60;;;;;;5074668;28;20451;-71
2022/07/19 08:10:58;;;;;;;3.67;3.27;;;33.50;48.40;;;;;;5074245;28;21041;-71
2022/07/19 08:13:27;;;;;;;4.00;3.10;;;34.10;48.10;;;;;;5074153;28;20487;-72
2022/07/19 08:15:54;;;;;;;5.00;3.50;;;34.60;48.20;;;;;;5074229;28;20471;-71
2022/07/19 08:18:21;;;;;;;3.57;2.73;;;34.30;45.10;;;;;;5074028;28;20563;-70
2022/07/19 08:20:48;;;;;;;3.20;2.70;;;34.20;45.20;;;;;;5074060;28;20468;-70
2022/07/19 08:23:16;;;;;;;5.90;2.43;;;34.20;44.50;;;;;;5073977;28;20822;-70
2022/07/19 08:25:43;;;;;;;6.30;2.90;;;34.40;43.50;;;;;;5073718;28;20479;-70
2022/07/19 08:28:10;;;;;;;2.50;2.30;;;34.70;43.80;;;;;;5074044;28;20468;-70
2022/07/19 08:30:39;;;;;;;5.47;2.53;;;34.70;43.60;;;;;;5073760;28;20507;-70
2022/07/19 08:33:08;;;;;;;6.17;2.63;;;35.10;42.30;;;;;;5074044;28;20473;-70
2022/07/19 08:35:35;;;;;;;2.60;2.40;;;35.30;42.40;;;;;;5074053;28;20452;-71
2022/07/19 08:38:03;;;;;;;2.70;2.50;;;35.30;42.40;;;;;;5073900;28;20485;-70
2022/07/19 08:40:34;;;;;;;3.10;2.67;;;35.70;42.30;;;;;;5073986;28;20471;-71
2022/07/19 08:43:04;;;;;;;3.60;2.60;;;35.80;41.80;;;;;;4961222;28;3621944;-70
2022/07/19 08:45:32;;;;;;;3.93;2.60;;;35.70;41.70;;;;;;5095015;28;20197;-71
2022/07/19 08:48:01;;;;;;;2.63;2.43;;;35.90;41.80;;;;;;5094644;28;20975;-70
2022/07/19 08:50:29;;;;;;;5.60;2.70;;;35.80;41.40;;;;;;5095099;28;20463;-71
2022/07/19 08:52:59;;;;;;;2.23;2.03;;;36.00;41.40;;;;;;5094650;28;20482;-71
2022/07/19 08:55:26;;;;;;;3.67;2.47;;;35.70;40.90;;;;;;5094723;28;20516;-71
2022/07/19 08:58:00;;;;;;;4.37;2.70;;;36.30;41.30;;;;;;5094357;28;20439;-71
2022/07/19 09:00:28;;;;;;;5.33;2.30;;;36.50;46.70;;;;;;5094422;28;20949;-71
2022/07/19 09:02:57;;;;;;;2.90;2.67;;;36.60;41.20;;;;;;5094629;28;20538;-70
2022/07/19 09:05:27;;;;;;;9.10;2.70;;;;;;;;;;5094739;28;20485;-70
2022/07/19 09:08:09;;;;;;;3.20;2.80;;;38.50;52.00;;;;;;5093810;28;20451;-70
2022/07/19 09:10:38;;;;;;;2.30;2.10;;;37.20;55.00;;;;;;5094564;28;20552;-71
2022/07/19 09:13:11;;;;;;;4.20;2.43;;;36.20;57.30;;;;;;5094173;28;20447;-70
2022/07/19 09:15:46;;;;;;;5.50;3.03;;;36.80;59.20;;;;;;5094481;28;20431;-68
2022/07/19 09:18:17;;;;;;;3.53;2.63;;;36.60;58.70;;;;;;5094014;28;20466;-70
2022/07/19 09:20:46;;;;;;;2.70;2.50;;;36.70;58.40;;;;;;5094522;28;20489;-70
2022/07/19 09:23:15;;;;;;;2.97;2.63;;;37.10;68.50;;;;;;5094156;28;20871;-70
2022/07/19 09:25:44;;;;;;;4.47;2.90;;;37.30;40.40;;;;;;5094149;28;20483;-70
2022/07/19 09:28:12;;;;;;;3.03;2.70;;;37.50;39.80;;;;;;5094338;28;20831;-70
2022/07/19 09:30:42;;;;;;;3.07;2.77;;;37.50;39.50;;;;;;5094270;28;20512;-70
2022/07/19 09:33:11;;;;;;;2.80;2.60;;;37.30;39.40;;;;;;5093670;28;20972;-70
2022/07/19 09:35:42;;;;;;;10.50;3.27;;;37.20;38.80;;;;;;5093671;28;20455;-71
2022/07/19 09:38:19;;;;;;;6.73;2.87;;;37.40;39.10;;;;;;5093625;28;20516;-70
2022/07/19 09:40:47;;;;;;;6.23;3.47;;;37.60;38.50;;;;;;5093946;28;20473;-71
2022/07/19 09:43:14;;;;;;;4.07;3.50;;;37.30;37.70;;;;;;5093376;28;20936;-71
2022/07/19 09:45:41;;;;;;;3.57;3.27;;;37.00;38.20;;;;;;5074998;28;20493;-73
2022/07/19 09:48:09;;;;;;;3.77;2.70;;;37.10;38.50;;;;;;5093714;28;20533;-71
2022/07/19 09:50:39;;;;;;;3.17;2.83;;;37.50;38.20;;;;;;5093552;28;20481;-71
2022/07/19 09:53:07;;;;;;;7.83;3.37;;;37.70;37.80;;;;;;5093543;28;20541;-70
2022/07/19 09:55:36;;;;;;;4.00;3.70;;;37.70;38.00;;;;;;5093152;28;20443;-71
2022/07/19 09:58:06;;;;;;;3.80;2.87;;;37.80;37.40;;;;;;5092989;28;20450;-71
2022/07/19 10:00:33;;;;;;;3.33;3.03;;;37.70;37.20;;;;;;5093272;28;20545;-71
2022/07/19 10:03:02;;;;;;;5.23;3.30;;;37.50;36.90;;;;;;5093198;28;20431;-71
2022/07/19 10:05:31;;;;;;;5.40;3.60;;;36.80;36.60;;;;;;5093075;28;20466;-70
2022/07/19 10:07:58;;;;;;;4.17;3.37;;;36.90;37.10;;;;;;5093166;28;20457;-70
2022/07/19 10:10:30;;;;;;;4.43;3.53;;;37.20;37.80;;;;;;5093123;28;20777;-70
2022/07/19 10:12:59;;;;;;;4.07;3.27;;;37.40;37.40;;;;;;5093018;28;20431;-70
2022/07/19 10:15:27;;;;;;;4.60;3.40;;;37.90;36.80;;;;;;5093273;28;20228;-69
2022/07/19 10:18:11;;;;;;;4.23;3.40;;;38.10;36.70;;;;;;5093193;28;20900;-70
2022/07/19 10:20:40;;;;;;;3.43;3.13;;;38.90;37.00;;;;;;5091328;28;20949;-70
2022/07/19 10:23:07;;;;;;;4.07;3.57;;;38.60;36.00;;;;;;5092940;28;20738;-69
2022/07/19 10:25:46;;;;;;;3.37;2.77;;;38.10;36.20;;;;;;5093123;28;20201;-69
2022/07/19 10:28:34;;;;;;;4.83;3.20;;;38.50;36.00;;;;;;5092959;28;20600;-69
2022/07/19 10:31:01;;;;;;;4.50;3.50;;;37.70;36.70;;;;;;5093004;28;20235;-69
2022/07/19 10:33:36;;;;;;;3.50;3.10;;;38.60;36.90;;;;;;5092660;28;20206;-69
2022/07/19 10:36:35;;;;;;;5.70;3.30;;;38.50;36.10;;;;;;5092887;28;20555;-68
2022/07/19 10:39:21;;;;;;;3.50;3.20;;;37.90;36.60;;;;;;5092624;28;20300;-68
2022/07/19 10:42:08;;;;;;;4.50;3.23;;;37.60;36.50;;;;;;5092684;28;20561;-69
2022/07/19 10:44:57;;;;;;;4.47;3.40;;;37.90;37.20;;;;;;5092866;28;20497;-70
2022/07/19 10:48:06;;;;;;;3.90;3.10;;;38.30;37.00;;;;;;5092426;28;20451;-70
2022/07/19 10:50:53;;;;;;;4.53;3.77;;;39.10;36.90;;;;;;5093030;28;20530;-70
2022/07/19 10:53:59;;;;;;;4.50;3.33;;;39.30;37.30;;;;;;5092740;28;20205;-71
2022/07/19 10:56:35;;;;;;;4.03;3.33;;;39.80;36.30;;;;;;5091593;28;20573;-70
2022/07/19 10:59:05;;;;;;;5.20;3.77;;;39.70;37.10;;;;;;5092506;28;20676;-69
2022/07/19 11:01:33;;;;;;;3.23;2.70;;;39.20;36.10;;;;;;5092461;28;20498;-69
2022/07/19 11:04:25;;;;;;;8.37;3.50;;;38.80;35.80;;;;;;5092260;28;20461;-69
2022/07/19 11:07:09;;;;;;;4.30;3.27;;;38.60;36.00;;;;;;5092307;28;20948;-69
2022/07/19 11:09:45;;;;;;;4.00;3.70;;;38.70;36.20;;;;;;5092246;28;20427;-70
2022/07/19 11:12:33;;;;;;;2.93;2.63;;;39.40;36.20;;;;;;5092610;28;20207;-70
2022/07/19 11:15:03;;;;;;;4.63;4.23;;;39.30;36.00;;;;;;5092234;28;20240;-70
2022/07/19 11:17:31;;;;;;;6.17;3.27;;;39.80;36.40;;;;;;5092531;28;20193;-70
2022/07/19 11:20:03;;;;;;;3.80;3.43;;;39.70;35.20;;;;;;5091953;28;20221;-70
2022/07/19 11:22:38;;;;;;;3.73;3.47;;;39.40;35.40;;;;;;5092549;28;20535;-71
2022/07/19 11:25:06;;;;;;;7.63;3.90;;;39.20;35.30;;;;;;5092429;28;20184;-70
2022/07/19 11:27:34;;;;;;;4.00;3.20;;;39.50;35.80;;;;;;5092277;28;20443;-73
2022/07/19 11:30:09;;;;;;;4.30;3.47;;;39.90;36.40;;;;;;5092577;28;20225;-70
2022/07/19 11:32:37;;;;;;;2.90;2.70;;;40.00;35.60;;;;;;5094923;28;20308;-70
2022/07/19 11:35:08;;;;;;;4.13;2.87;;;39.60;34.80;;;;;;5096135;28;20232;-71
2022/07/19 11:37:38;;;;;;;3.97;3.50;;;39.40;35.00;;;;;;5095804;28;20276;-70
2022/07/19 11:40:08;;;;;;;3.30;3.00;;;39.20;35.20;;;;;;5095544;28;20307;-70
2022/07/19 11:42:37;;;;;;;3.70;3.40;;;38.70;35.80;;;;;;5095778;28;20570;-71
2022/07/19 11:45:16;;;;;;;5.57;3.30;;;38.80;36.00;;;;;;5096082;28;20476;-71
2022/07/19 11:47:44;;;;;;;3.90;3.50;;;38.80;36.00;;;;;;5096182;28;20446;-71
2022/07/19 11:50:15;;;;;;;4.17;3.03;;;38.70;35.50;;;;;;5096000;28;20467;-72
2022/07/19 11:52:44;;;;;;;2.90;2.70;;;38.80;34.70;;;;;;5095921;28;20438;-71
2022/07/19 11:55:11;;;;;;;3.50;3.13;;;38.60;34.60;;;;;;5094813;28;20729;-72
2022/07/19 11:57:39;;;;;;;3.90;2.70;;;39.00;35.50;;;;;;5095938;28;20442;-71
2022/07/19 12:00:09;;;;;;;5.20;4.03;;;39.00;35.00;;;;;;5095520;28;20738;-71
2022/07/19 12:02:58;;;;;;;6.03;3.47;;;38.90;35.20;;;;;;5095691;28;20435;-71
2022/07/19 12:05:27;;;;;;;3.87;3.47;;;39.20;35.50;;;;;;5095588;28;20478;-71
2022/07/19 12:07:58;;;;;;;8.43;3.10;;;38.80;34.70;;;;;;5095228;28;20542;-72
2022/07/19 12:10:43;;;;;;;3.40;3.07;;;39.20;35.20;;;;;;5095769;28;20463;-71
2022/07/19 12:13:12;;;;;;;4.50;3.37;;;39.20;35.20;;;;;;5095367;28;20866;-72
2022/07/19 12:15:52;;;;;;;3.47;2.77;;;39.00;35.10;;;;;;5094999;28;20205;-74
2022/07/19 12:18:21;;;;;;;3.80;3.30;;;39.40;35.00;;;;;;5095555;28;20181;-71
2022/07/19 12:21:22;;;;;;;7.20;3.83;;;39.10;34.50;;;;;;5095077;28;20312;-72
2022/07/19 12:24:21;;;;;;;4.03;3.43;;;38.80;34.70;;;;;;5095118;28;20820;-71
2022/07/19 12:27:06;;;;;;;10.67;3.37;;;37.40;35.20;;;;;;5095399;28;20526;-71
2022/07/19 12:29:35;;;;;;;3.53;3.23;;;37.70;35.90;;;;;;5094977;28;20446;-72
2022/07/19 12:32:05;;;;;;;4.00;2.80;;;38.10;35.60;;;;;;5095292;28;20865;-72
2022/07/19 12:34:44;;;;;;;3.60;3.23;;;38.50;35.40;;;;;;5095145;28;20455;-72
2022/07/19 12:37:24;;;;;;;7.73;3.73;;;37.80;35.60;;;;;;5095440;28;20462;-72
2022/07/19 12:39:59;;;;;;;4.90;3.57;;;38.20;36.00;;;;;;5094696;28;20984;-73
2022/07/19 12:42:26;;;;;;;4.30;3.30;;;38.60;36.20;;;;;;5094078;28;20553;-73
2022/07/19 12:44:53;;;;;;;4.00;3.30;;;38.30;35.90;;;;;;5094080;28;20508;-73
2022/07/19 12:47:20;;;;;;;4.00;3.30;;;38.30;36.10;;;;;;5094862;28;20925;-73
2022/07/19 12:49:49;;;;;;;6.20;3.80;;;38.20;35.60;;;;;;5094796;28;20459;-73
2022/07/19 12:52:16;;;;;;;6.30;3.80;;;38.40;36.30;;;;;;5094605;28;20451;-73
2022/07/19 12:54:45;;;;;;;5.60;3.57;;;38.60;36.40;;;;;;5094578;28;20482;-72
2022/07/19 12:57:12;;;;;;;8.23;3.90;;;39.00;35.80;;;;;;5094760;28;20850;-72